Terminal Aerodrome Forecast
Issued by NWS

Home | Current Version | Previous Version | Text Only | Print | Product List | Glossary On
Versions: 1 2 3 4 5 6 7 8 9 10 11 12 13 14 15 16 17 18 19 20
000
FTUS45 KABQ 200500
TAFTCC
TAF
KTCC 200520Z 2006/2106 18010KT P6SM VCFG SCT015
      TEMPO 2006/2009 6SM BR SCT002 OVC015
     FM200900 24005KT P6SM VCFG SCT002 OVC015
     FM201500 03005KT P6SM SCT015 BKN040
     FM201800 09010KT P6SM SCT040=

USA.gov is the U.S. government's official web portal to all federal, state and local government web resources and services.